Time;durP1;ratioP1;P1;durP2;ratioP2;P2;SDS_P1;SDS_P2;PMS_P1;PMS_P2;Temp;Humidity;BMP_temperature;BMP_pressure;BME280_temperature;BME280_humidity;BME280_pressure;Samples;Min_cycle;Max_cycle;Signal;HPM_P1;HPM_P2
2023/02/11 00:02:22;;;;;;;22.17;13.33;;;-1.30;93.30;;;;;;4933099;29;20208;-86
2023/02/11 00:04:49;;;;;;;21.77;12.93;;;-1.30;93.30;;;;;;4927650;29;20214;-87
2023/02/11 00:07:15;;;;;;;22.00;13.03;;;-1.30;93.20;;;;;;4930252;29;20209;-86
2023/02/11 00:09:44;;;;;;;21.43;12.33;;;-1.20;93.10;;;;;;4929250;29;21036;-88
2023/02/11 00:12:10;;;;;;;22.07;12.70;;;-1.20;93.10;;;;;;4933835;29;20198;-87
2023/02/11 00:14:37;;;;;;;23.63;14.03;;;-1.20;93.00;;;;;;4933043;29;20200;-87
2023/02/11 00:17:04;;;;;;;21.50;12.90;;;-1.20;93.00;;;;;;4937152;29;20202;-86
2023/02/11 00:19:31;;;;;;;23.70;12.23;;;-1.30;93.20;;;;;;4933820;29;20678;-86
2023/02/11 00:21:57;;;;;;;19.10;12.93;;;-1.30;93.70;;;;;;4930956;29;20210;-86
2023/02/11 00:24:24;;;;;;;20.83;12.30;;;-1.40;94.00;;;;;;4931716;29;20587;-87
2023/02/11 00:26:52;;;;;;;24.23;13.03;;;-1.30;94.00;;;;;;4934247;29;20198;-87
2023/02/11 00:29:19;;;;;;;21.63;13.00;;;-1.30;93.70;;;;;;4928997;29;20227;-86
2023/02/11 00:31:46;;;;;;;23.30;12.83;;;-1.20;93.80;;;;;;4933976;29;20214;-86
2023/02/11 00:34:13;;;;;;;22.57;12.60;;;-1.10;93.40;;;;;;4934343;29;20672;-87
2023/02/11 00:36:41;;;;;;;21.17;13.07;;;-1.10;92.90;;;;;;4931971;29;20472;-86
2023/02/11 00:39:08;;;;;;;20.37;12.37;;;-1.00;92.90;;;;;;4936214;29;20227;-86
2023/02/11 00:41:35;;;;;;;19.17;12.07;;;-1.10;92.80;;;;;;4924793;29;20589;-86
2023/02/11 00:44:03;;;;;;;21.57;12.53;;;-1.10;92.90;;;;;;4934109;29;20197;-87
2023/02/11 00:46:30;;;;;;;19.87;12.80;;;-1.10;93.00;;;;;;4930192;29;20225;-86
2023/02/11 00:48:57;;;;;;;18.47;12.67;;;-1.10;92.90;;;;;;4931393;29;20234;-87
2023/02/11 00:51:24;;;;;;;23.70;11.97;;;-1.20;93.00;;;;;;4932212;29;20258;-87
2023/02/11 00:53:51;;;;;;;22.27;12.17;;;-1.30;93.10;;;;;;4937965;29;20216;-86
2023/02/11 00:56:17;;;;;;;21.70;11.70;;;-1.20;93.10;;;;;;4937592;29;20219;-86
2023/02/11 00:58:44;;;;;;;23.70;12.40;;;-1.20;93.00;;;;;;4934657;29;20206;-86
2023/02/11 01:01:13;;;;;;;20.23;11.87;;;-1.20;93.10;;;;;;4907869;29;20819;-87
2023/02/11 01:03:41;;;;;;;19.80;11.80;;;-1.30;93.10;;;;;;4934216;29;20203;-85
2023/02/11 01:06:09;;;;;;;22.90;12.27;;;-1.30;93.10;;;;;;4932915;29;20209;-86
2023/02/11 01:08:36;;;;;;;22.40;12.33;;;-1.30;93.30;;;;;;4934960;29;20241;-86
2023/02/11 01:11:05;;;;;;;20.63;12.40;;;-1.30;93.10;;;;;;4930176;29;20213;-86
2023/02/11 01:13:35;;;;;;;23.83;12.67;;;-1.30;93.10;;;;;;4934968;29;20650;-86
2023/02/11 01:16:02;;;;;;;23.70;12.50;;;-1.40;93.40;;;;;;4933624;29;20204;-86
2023/02/11 01:18:31;;;;;;;19.43;12.03;;;-1.40;93.70;;;;;;4926337;29;20207;-87
2023/02/11 01:20:58;;;;;;;20.97;12.13;;;-1.50;93.70;;;;;;4924429;29;20214;-87
2023/02/11 01:23:24;;;;;;;21.07;12.40;;;-1.50;93.70;;;;;;4927601;29;20222;-86
2023/02/11 01:25:51;;;;;;;20.73;11.90;;;-1.40;93.70;;;;;;4931509;29;20204;-86
2023/02/11 01:28:20;;;;;;;19.30;11.87;;;-1.50;93.70;;;;;;4931761;29;20287;-87
2023/02/11 01:30:47;;;;;;;18.57;11.77;;;-1.50;93.70;;;;;;4931270;29;20221;-86
2023/02/11 01:33:14;;;;;;;20.43;12.03;;;-1.50;93.70;;;;;;4930366;29;20204;-86
2023/02/11 01:35:42;;;;;;;21.07;11.50;;;-1.50;93.70;;;;;;4934034;29;20665;-86
2023/02/11 01:38:15;;;;;;;20.83;11.47;;;-1.50;93.70;;;;;;4934599;29;20894;-86
2023/02/11 01:40:47;;;;;;;17.83;11.60;;;-1.50;93.70;;;;;;4926140;29;20206;-86
2023/02/11 01:43:14;;;;;;;19.30;11.90;;;-1.40;93.70;;;;;;4938400;29;20239;-87
2023/02/11 01:46:00;;;;;;;18.83;11.77;;;-1.50;93.70;;;;;;4930782;29;20216;-86
2023/02/11 01:48:30;;;;;;;16.83;11.17;;;-1.40;93.40;;;;;;4939985;29;20203;-87
2023/02/11 01:51:04;;;;;;;17.00;10.90;;;-1.40;93.10;;;;;;4939624;29;20211;-86
2023/02/11 01:59:07;;;;;;;21.33;12.07;;;-1.40;93.10;;;;;;4939930;29;20678;-86
2023/02/11 02:01:35;;;;;;;19.00;10.90;;;-1.50;93.20;;;;;;4937426;29;20193;-87
2023/02/11 02:04:05;;;;;;;16.27;10.80;;;-1.50;93.30;;;;;;4923492;29;21024;-87
2023/02/11 02:06:37;;;;;;;21.73;12.53;;;-1.50;93.30;;;;;;4936259;29;20206;-86
2023/02/11 02:09:09;;;;;;;18.63;11.53;;;-1.50;93.40;;;;;;4934778;29;20226;-87
2023/02/11 02:11:36;;;;;;;17.60;10.87;;;-1.50;93.40;;;;;;4930942;29;20577;-86
2023/02/11 02:14:03;;;;;;;21.63;10.97;;;-1.50;93.40;;;;;;4940674;29;20654;-86
2023/02/11 02:17:20;;;;;;;21.37;12.00;;;-1.50;93.70;;;;;;4928452;29;20206;-87
2023/02/11 02:20:15;;;;;;;20.37;10.97;;;-1.50;93.40;;;;;;4940939;29;20220;-86
2023/02/11 02:23:11;;;;;;;18.60;10.90;;;-1.40;93.10;;;;;;4925674;29;20293;-86
2023/02/11 02:26:00;;;;;;;20.50;10.93;;;-1.40;93.20;;;;;;4930668;29;20200;-90
2023/02/11 02:28:46;;;;;;;18.43;10.20;;;-1.50;93.60;;;;;;4933115;29;20566;-88
2023/02/11 02:31:35;;;;;;;17.73;9.97;;;-1.50;93.40;;;;;;4941238;29;20653;-86
2023/02/11 02:34:09;;;;;;;18.10;10.70;;;-1.40;93.00;;;;;;4938463;29;20212;-86
2023/02/11 02:36:43;;;;;;;21.77;10.83;;;-1.40;92.90;;;;;;4930288;29;20218;-86
2023/02/11 02:39:14;;;;;;;17.50;10.27;;;-1.40;92.90;;;;;;4928064;29;20202;-86
2023/02/11 02:41:42;;;;;;;18.67;10.37;;;-1.40;92.70;;;;;;4930498;29;20985;-86
2023/02/11 02:44:09;;;;;;;17.87;10.37;;;-1.40;92.90;;;;;;4939843;29;20202;-86
2023/02/11 02:46:36;;;;;;;17.03;10.20;;;-1.50;92.90;;;;;;4934260;29;20200;-86
2023/02/11 02:49:10;;;;;;;16.37;10.03;;;-1.50;93.00;;;;;;4926125;29;20229;-87
2023/02/11 02:52:03;;;;;;;16.03;10.63;;;-1.50;93.00;;;;;;4932969;29;20201;-91
2023/02/11 02:54:47;;;;;;;16.93;10.53;;;-1.60;93.20;;;;;;4927741;29;20200;-87
2023/02/11 02:57:28;;;;;;;16.40;10.80;;;-1.70;93.40;;;;;;4930470;29;20199;-87
2023/02/11 03:00:08;;;;;;;16.80;9.70;;;-1.80;93.60;;;;;;4936809;29;20207;-87
2023/02/11 03:02:44;;;;;;;16.30;10.33;;;-1.70;93.70;;;;;;4936917;28;20204;-87
2023/02/11 03:05:18;;;;;;;15.57;9.67;;;-1.70;93.40;;;;;;4931500;29;20206;-86
2023/02/11 03:07:50;;;;;;;17.17;10.27;;;-1.60;93.20;;;;;;4931910;29;20216;-86
2023/02/11 03:10:23;;;;;;;14.97;9.63;;;-1.60;92.80;;;;;;4931949;29;20222;-86
2023/02/11 03:12:52;;;;;;;14.50;9.23;;;-1.60;92.90;;;;;;4930674;29;20202;-86
2023/02/11 03:15:21;;;;;;;14.63;9.57;;;-1.60;92.80;;;;;;4928366;29;20198;-87
2023/02/11 03:17:51;;;;;;;14.93;9.27;;;-1.60;92.70;;;;;;4933759;29;20210;-86
2023/02/11 03:20:21;;;;;;;15.87;9.60;;;-1.50;92.50;;;;;;4933595;29;20210;-87
2023/02/11 03:22:52;;;;;;;15.23;9.23;;;-1.50;92.60;;;;;;4927921;29;20210;-86
2023/02/11 03:25:20;;;;;;;14.50;9.23;;;-1.50;92.60;;;;;;4934421;29;20219;-86
2023/02/11 03:27:52;;;;;;;17.93;9.63;;;-1.60;92.50;;;;;;4934739;29;20208;-86
2023/02/11 03:30:24;;;;;;;18.50;9.43;;;-1.60;92.70;;;;;;4933494;29;20211;-85
2023/02/11 03:32:54;;;;;;;13.83;8.93;;;-1.70;92.60;;;;;;4938599;29;20211;-86
2023/02/11 03:35:28;;;;;;;14.30;8.57;;;-1.70;92.60;;;;;;4932829;29;20202;-86
2023/02/11 03:37:59;;;;;;;15.90;9.10;;;-1.80;92.70;;;;;;4922325;29;20206;-86
2023/02/11 03:40:30;;;;;;;16.50;8.97;;;-1.90;93.20;;;;;;4933335;29;20194;-87
2023/02/11 03:43:00;;;;;;;13.93;8.67;;;-1.90;93.30;;;;;;4928778;29;20238;-87
2023/02/11 03:45:28;;;;;;;15.97;8.67;;;-2.00;93.20;;;;;;4937214;29;20198;-87
2023/02/11 03:48:00;;;;;;;11.57;8.07;;;-2.10;93.10;;;;;;4937194;29;20285;-86
2023/02/11 03:50:31;;;;;;;13.20;7.50;;;-2.10;93.20;;;;;;4929151;29;20591;-87
2023/02/11 03:53:00;;;;;;;13.27;7.63;;;-2.10;93.30;;;;;;4938923;29;20199;-87
2023/02/11 03:55:29;;;;;;;17.10;8.70;;;-1.80;92.60;;;;;;4925815;29;20210;-87
2023/02/11 03:57:56;;;;;;;11.63;7.33;;;-1.70;92.20;;;;;;4937813;29;20209;-86
2023/02/11 04:00:30;;;;;;;10.87;6.93;;;-1.80;92.20;;;;;;4930271;29;20214;-88
2023/02/11 04:02:57;;;;;;;12.07;7.87;;;-1.80;92.00;;;;;;4933065;29;20309;-86
2023/02/11 04:05:24;;;;;;;11.00;7.10;;;-1.80;92.10;;;;;;4940666;29;20204;-86
2023/02/11 04:07:52;;;;;;;13.87;7.40;;;-1.90;92.40;;;;;;4929029;29;20286;-86
2023/02/11 04:10:19;;;;;;;10.60;7.10;;;-1.90;92.40;;;;;;4938772;29;20244;-86
2023/02/11 04:12:46;;;;;;;12.17;7.50;;;-1.90;92.20;;;;;;4928126;29;20209;-86
2023/02/11 04:15:13;;;;;;;11.23;7.20;;;-1.80;92.00;;;;;;4933843;29;20654;-85
2023/02/11 04:17:40;;;;;;;13.43;7.47;;;-1.80;92.10;;;;;;4928047;29;20205;-86
2023/02/11 04:20:08;;;;;;;11.77;7.23;;;-2.00;92.30;;;;;;4933623;29;20209;-87
2023/02/11 04:22:35;;;;;;;11.83;8.00;;;-2.00;92.40;;;;;;4927620;29;20209;-86
2023/02/11 04:25:03;;;;;;;12.63;7.43;;;-2.10;92.40;;;;;;4931682;29;20217;-86
2023/02/11 04:27:30;;;;;;;11.90;7.03;;;-2.20;92.60;;;;;;4925178;29;20716;-87
2023/02/11 04:29:57;;;;;;;16.03;7.47;;;-2.20;92.90;;;;;;4926817;29;20694;-85
2023/02/11 04:32:24;;;;;;;10.47;7.00;;;-2.20;93.00;;;;;;4929273;29;20218;-89
2023/02/11 04:34:50;;;;;;;11.00;7.33;;;-2.10;93.20;;;;;;4940170;29;20549;-86
2023/02/11 04:37:18;;;;;;;9.70;6.70;;;-1.90;92.80;;;;;;4929123;29;20194;-88
2023/02/11 04:39:44;;;;;;;12.17;6.93;;;-1.60;91.90;;;;;;4944258;29;20205;-86
2023/02/11 04:42:13;;;;;;;12.07;7.63;;;-1.70;91.90;;;;;;4935535;29;20226;-87
2023/02/11 04:44:39;;;;;;;13.13;7.13;;;-1.70;92.40;;;;;;4933008;29;20205;-86
2023/02/11 04:47:06;;;;;;;10.90;6.70;;;-1.60;92.40;;;;;;4930111;29;20207;-86
2023/02/11 04:49:33;;;;;;;11.00;6.93;;;-1.60;92.00;;;;;;4936414;29;20789;-86
2023/02/11 04:52:00;;;;;;;10.17;7.20;;;-1.70;92.20;;;;;;4928402;29;20204;-86
2023/02/11 04:54:27;;;;;;;12.97;7.47;;;-1.70;92.50;;;;;;4937596;29;20210;-86
2023/02/11 04:56:54;;;;;;;10.70;6.83;;;-1.70;92.40;;;;;;4934522;29;20218;-86
2023/02/11 04:59:22;;;;;;;11.70;6.27;;;-1.60;92.10;;;;;;4930998;29;20531;-86
2023/02/11 05:01:49;;;;;;;10.40;6.37;;;-1.50;92.00;;;;;;4923457;29;20206;-86
2023/02/11 05:04:16;;;;;;;10.17;6.90;;;-1.50;91.90;;;;;;4935404;29;20212;-86
2023/02/11 05:06:43;;;;;;;9.33;6.27;;;-1.40;91.60;;;;;;4930405;29;20198;-86
2023/02/11 05:09:11;;;;;;;11.17;6.40;;;-1.40;91.20;;;;;;4931124;29;20202;-86
2023/02/11 05:11:38;;;;;;;12.80;7.07;;;-1.40;91.00;;;;;;4929611;29;20220;-88
2023/02/11 05:14:06;;;;;;;9.77;6.20;;;-1.30;91.10;;;;;;4934449;29;20626;-86
2023/02/11 05:16:34;;;;;;;11.43;7.07;;;-1.30;91.10;;;;;;4922116;29;20230;-86
2023/02/11 05:19:00;;;;;;;10.63;6.20;;;-1.30;91.40;;;;;;4933576;29;20659;-86
2023/02/11 05:21:27;;;;;;;11.57;7.20;;;-1.40;92.10;;;;;;4927575;29;20203;-86
2023/02/11 05:23:54;;;;;;;15.30;6.83;;;-1.30;91.80;;;;;;4938766;29;20224;-90
2023/02/11 05:26:22;;;;;;;19.13;7.30;;;-1.30;92.40;;;;;;4931035;29;20207;-86
2023/02/11 05:28:49;;;;;;;13.27;6.87;;;-1.30;92.20;;;;;;4937149;29;20214;-86
2023/02/11 05:31:16;;;;;;;11.00;6.90;;;-1.30;92.10;;;;;;4930852;29;20223;-88
2023/02/11 05:33:44;;;;;;;10.73;6.60;;;-1.20;92.40;;;;;;4926482;29;20205;-86
2023/02/11 05:36:13;;;;;;;13.20;7.20;;;-1.20;92.20;;;;;;4933704;29;20666;-86
2023/02/11 05:38:41;;;;;;;11.30;6.90;;;-1.20;92.10;;;;;;4927791;29;20570;-86
2023/02/11 05:41:08;;;;;;;12.67;7.17;;;-1.10;92.40;;;;;;4932739;29;20304;-86
2023/02/11 05:43:35;;;;;;;10.03;6.67;;;-1.10;92.50;;;;;;4935619;29;20213;-86
2023/02/11 05:46:02;;;;;;;13.00;6.83;;;-1.00;91.50;;;;;;4929320;29;20700;-86
2023/02/11 05:48:30;;;;;;;11.30;7.13;;;-0.90;91.10;;;;;;4923943;29;20206;-86
2023/02/11 05:50:58;;;;;;;10.70;7.13;;;-0.70;90.50;;;;;;4932736;29;20559;-87
2023/02/11 05:53:25;;;;;;;11.83;7.13;;;-0.80;90.60;;;;;;4926570;29;20229;-86
2023/02/11 05:55:52;;;;;;;13.00;7.73;;;-0.80;91.20;;;;;;4935400;29;20204;-86
2023/02/11 05:58:19;;;;;;;10.87;6.80;;;-0.80;91.50;;;;;;4927369;29;20198;-83
2023/02/11 06:00:46;;;;;;;9.13;6.00;;;-0.70;91.20;;;;;;4928747;29;20224;-84
2023/02/11 06:03:13;;;;;;;10.40;6.50;;;-0.50;90.90;;;;;;4928502;29;20202;-84
2023/02/11 06:05:39;;;;;;;13.20;7.03;;;-0.50;90.80;;;;;;4929933;29;20203;-84
2023/02/11 06:08:07;;;;;;;10.83;6.50;;;-0.40;90.50;;;;;;4926064;29;20209;-88
2023/02/11 06:10:34;;;;;;;9.83;6.53;;;-0.30;90.40;;;;;;4926440;29;20230;-85
2023/02/11 06:13:02;;;;;;;9.20;6.10;;;-0.30;89.70;;;;;;4929464;29;20285;-83
2023/02/11 06:15:28;;;;;;;9.33;6.60;;;-0.30;89.20;;;;;;4923180;29;20257;-87
2023/02/11 06:17:55;;;;;;;10.00;6.27;;;-0.20;89.90;;;;;;4926439;29;20202;-84
2023/02/11 06:20:22;;;;;;;9.23;6.30;;;-0.30;88.90;;;;;;4938599;29;20855;-85
2023/02/11 06:22:49;;;;;;;10.50;6.57;;;-0.30;89.00;;;;;;4932343;29;20205;-86
2023/02/11 06:25:17;;;;;;;11.03;6.07;;;-0.20;88.90;;;;;;4929978;29;20234;-84
2023/02/11 06:27:44;;;;;;;8.80;5.87;;;-0.20;87.60;;;;;;4936905;29;20647;-85
2023/02/11 06:30:11;;;;;;;8.13;6.20;;;-0.10;87.70;;;;;;4941083;29;20236;-83
2023/02/11 06:32:38;;;;;;;8.40;5.57;;;-0.20;86.60;;;;;;4939485;29;20577;-87
2023/02/11 06:35:05;;;;;;;8.53;5.80;;;-0.10;85.80;;;;;;4932512;29;20230;-84
2023/02/11 06:37:33;;;;;;;10.97;6.00;;;-0.20;85.70;;;;;;4921160;29;20655;-84
2023/02/11 06:40:00;;;;;;;9.23;5.90;;;-0.20;85.70;;;;;;4943529;29;20207;-85
2023/02/11 06:42:28;;;;;;;7.57;5.63;;;-0.20;85.70;;;;;;4938835;29;20233;-84
2023/02/11 06:44:55;;;;;;;10.23;6.30;;;-0.30;85.60;;;;;;4931044;29;20202;-84
2023/02/11 06:47:22;;;;;;;10.03;6.43;;;-0.30;85.60;;;;;;4931622;29;20284;-87
2023/02/11 06:49:49;;;;;;;11.83;6.23;;;-0.20;85.70;;;;;;4935287;29;20234;-85
2023/02/11 06:52:16;;;;;;;8.93;5.87;;;-0.10;85.80;;;;;;4941849;29;20210;-84
2023/02/11 06:54:42;;;;;;;12.20;6.50;;;-0.10;85.80;;;;;;4928152;29;20199;-84
2023/02/11 06:57:09;;;;;;;10.77;6.40;;;-0.10;85.80;;;;;;4925613;29;20288;-83
2023/02/11 06:59:37;;;;;;;10.40;6.70;;;-0.20;87.90;;;;;;4943212;29;20204;-83
2023/02/11 07:02:04;;;;;;;9.33;6.40;;;-0.20;89.30;;;;;;4934588;29;20202;-84
2023/02/11 07:04:31;;;;;;;10.70;6.20;;;-0.20;86.70;;;;;;4933182;29;20197;-79
2023/02/11 07:06:57;;;;;;;9.37;6.07;;;-0.20;85.70;;;;;;4940812;29;20205;-80
2023/02/11 07:09:24;;;;;;;8.87;6.17;;;-0.20;85.70;;;;;;4948524;29;20197;-80
2023/02/11 07:11:51;;;;;;;10.50;5.90;;;-0.10;85.00;;;;;;4933994;29;20234;-83
2023/02/11 07:14:18;;;;;;;9.87;5.73;;;0.10;85.90;;;;;;4944526;29;20210;-84
2023/02/11 07:16:46;;;;;;;8.40;5.87;;;0.20;84.20;;;;;;4937547;29;20210;-89
2023/02/11 07:19:13;;;;;;;11.13;6.23;;;0.30;84.00;;;;;;4943869;29;20223;-83
2023/02/11 07:21:40;;;;;;;8.90;6.03;;;0.70;82.10;;;;;;4958036;29;20224;-86
2023/02/11 07:24:07;;;;;;;9.27;5.50;;;0.80;79.10;;;;;;4937715;29;20599;-86
2023/02/11 07:26:34;;;;;;;8.97;6.23;;;0.80;78.10;;;;;;4935805;29;20198;-87
2023/02/11 07:29:01;;;;;;;8.73;5.80;;;0.80;77.80;;;;;;4935510;29;20819;-86
2023/02/11 07:31:29;;;;;;;10.07;5.37;;;0.90;77.20;;;;;;4931682;29;20218;-87
2023/02/11 07:34:00;;;;;;;7.33;4.70;;;0.80;76.90;;;;;;4932074;29;20203;-87
2023/02/11 07:36:28;;;;;;;17.03;5.50;;;0.70;74.40;;;;;;4929603;29;20196;-86
2023/02/11 07:38:55;;;;;;;10.07;5.43;;;0.80;72.00;;;;;;4930617;29;20935;-87
2023/02/11 07:41:23;;;;;;;10.23;5.10;;;0.70;75.40;;;;;;4931054;29;20713;-87
2023/02/11 07:43:50;;;;;;;8.23;5.10;;;0.70;75.90;;;;;;4943698;29;20198;-86
2023/02/11 07:46:21;;;;;;;7.13;4.57;;;0.70;76.20;;;;;;4931346;29;20285;-85
2023/02/11 07:48:48;;;;;;;11.97;5.23;;;0.80;76.20;;;;;;4935416;29;20584;-87
2023/02/11 07:51:18;;;;;;;7.93;5.00;;;1.00;71.60;;;;;;4939599;29;20260;-84
2023/02/11 07:54:04;;;;;;;12.57;4.80;;;1.20;68.30;;;;;;4935468;29;20210;-85
2023/02/11 07:56:32;;;;;;;9.10;4.97;;;1.30;71.00;;;;;;4950961;29;20876;-89
2023/02/11 07:59:02;;;;;;;8.57;5.33;;;1.50;66.00;;;;;;4925844;29;20210;-87
2023/02/11 08:01:29;;;;;;;8.73;5.23;;;1.50;69.00;;;;;;4941025;29;20204;-85
2023/02/11 08:03:57;;;;;;;10.10;6.10;;;1.50;68.00;;;;;;4939231;29;20217;-83
2023/02/11 08:06:30;;;;;;;10.47;6.07;;;1.60;66.20;;;;;;4942660;29;20197;-83
2023/02/11 08:08:56;;;;;;;13.97;8.00;;;1.80;66.30;;;;;;4938395;29;20205;-88
2023/02/11 08:11:25;;;;;;;12.60;7.43;;;1.90;62.60;;;;;;4934980;29;20253;-86
2023/02/11 08:13:53;;;;;;;10.57;5.87;;;1.90;63.60;;;;;;4932338;29;20293;-89
2023/02/11 08:16:22;;;;;;;11.93;6.03;;;1.90;59.50;;;;;;4932460;29;20195;-85
2023/02/11 08:18:50;;;;;;;9.03;5.37;;;2.00;59.50;;;;;;4928273;29;20216;-85
2023/02/11 08:21:17;;;;;;;10.20;5.87;;;2.00;61.30;;;;;;4932209;29;20218;-84
2023/02/11 08:23:46;;;;;;;10.33;5.33;;;2.10;57.40;;;;;;4927367;29;20600;-82
2023/02/11 08:26:17;;;;;;;9.17;6.23;;;2.30;60.30;;;;;;4931910;29;20206;-84
2023/02/11 08:28:45;;;;;;;9.57;5.77;;;2.40;58.40;;;;;;4933766;29;20213;-83
2023/02/11 08:31:14;;;;;;;9.07;5.83;;;2.50;55.10;;;;;;4936884;29;20222;-82
2023/02/11 08:33:41;;;;;;;13.00;6.90;;;2.70;52.30;;;;;;4927156;29;20202;-82
2023/02/11 08:36:09;;;;;;;10.47;6.40;;;2.80;48.90;;;;;;4926793;29;20204;-82
2023/02/11 08:38:37;;;;;;;11.50;6.90;;;2.80;47.90;;;;;;4936771;29;20190;-83
2023/02/11 08:41:06;;;;;;;12.93;6.50;;;2.80;48.70;;;;;;4926724;29;20213;-85
2023/02/11 08:43:33;;;;;;;12.67;5.93;;;2.90;48.00;;;;;;4925743;29;20202;-83
2023/02/11 08:46:00;;;;;;;9.00;6.43;;;2.90;44.80;;;;;;4927522;29;20702;-84
2023/02/11 08:48:27;;;;;;;11.83;6.50;;;3.00;45.40;;;;;;4928994;29;20548;-82
2023/02/11 08:50:54;;;;;;;10.07;6.37;;;3.00;44.30;;;;;;4934468;29;20277;-84
2023/02/11 08:53:21;;;;;;;12.03;7.17;;;3.20;42.80;;;;;;4928329;29;20203;-86
2023/02/11 08:55:49;;;;;;;11.50;6.60;;;3.40;43.00;;;;;;4931298;29;20218;-85
2023/02/11 08:58:19;;;;;;;12.80;6.53;;;3.30;42.10;;;;;;4937738;29;20210;-91
2023/02/11 09:00:46;;;;;;;11.07;7.10;;;3.30;43.00;;;;;;4925804;29;20197;-88
2023/02/11 09:03:13;;;;;;;9.80;6.30;;;3.40;40.00;;;;;;4923970;29;20194;-87
2023/02/11 09:05:42;;;;;;;10.77;6.47;;;3.30;39.70;;;;;;4923242;29;20213;-89
2023/02/11 09:08:09;;;;;;;10.03;6.70;;;3.30;42.90;;;;;;4931899;29;20347;-87
2023/02/11 09:10:36;;;;;;;11.00;6.67;;;3.20;41.90;;;;;;4928184;29;20229;-88
2023/02/11 09:13:03;;;;;;;13.30;7.60;;;3.30;43.00;;;;;;4931317;29;20202;-92
2023/02/11 09:15:32;;;;;;;14.93;7.67;;;3.50;41.00;;;;;;4927684;29;20296;-88
2023/02/11 09:17:59;;;;;;;14.13;7.47;;;3.70;39.30;;;;;;4927331;29;20201;-87
2023/02/11 09:20:26;;;;;;;12.63;7.17;;;3.90;36.70;;;;;;4926114;29;20194;-86
2023/02/11 09:22:53;;;;;;;15.00;7.13;;;4.00;35.10;;;;;;4932950;29;20848;-88
2023/02/11 09:25:20;;;;;;;16.00;7.27;;;3.80;35.40;;;;;;4927729;29;20225;-88
2023/02/11 09:27:47;;;;;;;10.93;7.13;;;3.70;35.80;;;;;;4931222;29;20206;-86
2023/02/11 09:30:14;;;;;;;14.67;7.27;;;3.70;37.70;;;;;;4932399;29;20285;-86
2023/02/11 09:32:42;;;;;;;11.20;7.03;;;3.60;37.60;;;;;;4921717;29;20227;-88
2023/02/11 09:35:09;;;;;;;12.57;7.20;;;3.60;38.70;;;;;;4928310;29;20206;-89
2023/02/11 09:37:36;;;;;;;9.17;6.80;;;3.60;38.00;;;;;;4927884;29;20210;-90
2023/02/11 09:40:03;;;;;;;13.97;7.00;;;3.60;39.00;;;;;;4908973;29;20224;-88
2023/02/11 09:42:48;;;;;;;14.83;6.67;;;3.80;36.70;;;;;;4925266;29;20252;-87
2023/02/11 09:45:19;;;;;;;14.63;6.80;;;3.90;36.50;;;;;;4924820;29;20229;-86
2023/02/11 09:47:52;;;;;;;10.43;6.10;;;4.00;35.80;;;;;;4933695;29;20236;-87
2023/02/11 09:50:27;;;;;;;12.53;6.23;;;4.00;35.50;;;;;;4925926;29;20206;-89
2023/02/11 09:52:58;;;;;;;11.77;6.50;;;4.10;33.70;;;;;;4933451;29;20209;-87
2023/02/11 09:55:28;;;;;;;9.37;6.10;;;4.00;33.90;;;;;;4931684;29;20202;-90
2023/02/11 09:57:58;;;;;;;10.03;6.03;;;4.10;33.20;;;;;;4929334;29;20547;-92
2023/02/11 10:00:31;;;;;;;9.77;6.10;;;4.00;33.40;;;;;;4931931;29;20205;-93
2023/02/11 10:03:19;;;;;;;10.93;6.70;;;4.20;34.10;;;;;;4930101;29;20870;-91
2023/02/11 10:06:07;;;;;;;12.75;6.57;;;4.30;32.20;;;;;;4955776;29;20205;-95
2023/02/11 10:08:54;;;;;;;10.68;6.90;;;4.70;32.00;;;;;;4971126;28;20229;-92
2023/02/11 10:11:27;;;;;;;10.07;6.43;;;5.30;30.70;;;;;;4960190;29;20296;-93
2023/02/11 10:20:08;;;;;;;10.63;7.53;;;6.50;22.50;;;;;;4937029;29;20256;-93
2023/02/11 10:22:39;;;;;;;12.95;7.03;;;6.50;22.50;;;;;;4921337;29;20230;-93
2023/02/11 10:25:34;;;;;;;10.15;6.82;;;6.60;22.50;;;;;;4959843;23;20260;-86
2023/02/11 10:28:10;;;;;;;13.52;7.40;;;6.40;23.30;;;;;;4958702;29;20201;-86
2023/02/11 10:30:42;;;;;;;12.65;8.02;;;6.10;24.10;;;;;;4951572;29;20282;-85
2023/02/11 10:40:25;;;;;;;15.30;8.38;;;5.70;25.40;;;;;;4939837;29;20593;-83
2023/02/11 10:43:28;;;;;;;12.15;8.10;;;5.60;26.50;;;;;;4939673;29;20532;-83
2023/02/11 10:45:56;;;;;;;15.35;8.45;;;5.50;27.40;;;;;;4957851;29;20185;-87
2023/02/11 11:02:34;;;;;;;15.90;8.77;;;7.90;23.50;;;;;;4958780;28;20185;-86
2023/02/11 11:19:25;;;;;;;14.43;8.77;;;7.80;20.30;;;;;;4957950;29;20304;-85
2023/02/11 11:30:31;;;;;;;17.05;8.60;;;7.70;23.30;;;;;;5140478;23;20230;-88
2023/02/11 11:32:59;;;;;;;15.75;8.68;;;7.70;22.60;;;;;;4903778;29;20244;-87
2023/02/11 11:35:41;;;;;;;15.80;8.60;;;7.40;21.30;;;;;;4919862;29;20194;-86
2023/02/11 11:45:55;;;;;;;13.57;7.82;;;7.50;23.20;;;;;;4937790;29;20208;-86
2023/02/11 11:52:33;;;;;;;15.18;8.23;;;7.70;23.30;;;;;;4938298;29;20559;-86
2023/02/11 11:55:07;;;;;;;14.35;8.68;;;7.70;23.30;;;;;;4937873;29;20190;-86
2023/02/11 12:05:27;;;;;;;14.98;9.02;;;8.30;20.60;;;;;;4879871;29;20247;-86
2023/02/11 12:11:14;;;;;;;14.70;8.50;;;8.10;19.60;;;;;;4878999;29;20268;-90
2023/02/11 12:13:58;;;;;;;19.77;9.57;;;7.60;20.20;;;;;;4925081;29;20213;-87
2023/02/11 12:16:36;;;;;;;15.07;8.95;;;7.70;20.60;;;;;;4916943;29;20273;-93
2023/02/11 12:19:51;;;;;;;15.85;8.27;;;7.60;20.70;;;;;;4928878;29;20230;-90
2023/02/11 12:22:29;;;;;;;13.70;7.97;;;7.60;20.30;;;;;;4865152;29;20212;-92
2023/02/11 12:25:22;;;;;;;14.50;8.70;;;7.60;19.60;;;;;;4934129;29;20682;-87
2023/02/11 12:28:01;;;;;;;12.48;7.90;;;7.50;21.80;;;;;;4917799;29;20203;-93
2023/02/11 12:31:00;;;;;;;16.25;8.65;;;7.60;22.20;;;;;;4946405;29;20206;-93
2023/02/11 12:33:44;;;;;;;13.23;8.00;;;7.60;20.60;;;;;;4934316;29;20690;-90
2023/02/11 12:36:19;;;;;;;13.90;8.77;;;7.70;18.70;;;;;;4938062;29;20198;-91
2023/02/11 12:39:02;;;;;;;13.50;7.30;;;7.80;18.80;;;;;;4936108;29;20208;-95
2023/02/11 12:44:40;;;;;;;15.10;7.90;;;8.10;16.50;;;;;;4931561;29;20197;-89
2023/02/11 12:47:20;;;;;;;12.50;7.38;;;8.00;17.30;;;;;;4931025;29;20221;-87
2023/02/11 12:53:30;;;;;;;11.20;7.55;;;7.90;17.50;;;;;;4922339;29;20227;-87
2023/02/11 12:56:03;;;;;;;14.07;7.53;;;7.90;16.80;;;;;;4862830;29;20252;-89
2023/02/11 12:58:34;;;;;;;13.27;8.00;;;7.90;17.30;;;;;;4862424;29;20226;-88
2023/02/11 13:01:08;;;;;;;11.30;7.18;;;7.90;17.80;;;;;;4864121;29;20211;-88
2023/02/11 13:03:39;;;;;;;15.10;7.95;;;7.80;17.60;;;;;;4891929;29;20201;-87
2023/02/11 13:06:09;;;;;;;14.30;7.82;;;7.80;17.90;;;;;;4937089;29;20197;-88
2023/02/11 13:20:05;;;;;;;12.60;8.02;;;7.50;19.30;;;;;;4935234;29;20189;-88
2023/02/11 13:22:39;;;;;;;12.98;8.95;;;7.40;19.10;;;;;;4926702;29;20243;-87
2023/02/11 13:25:20;;;;;;;12.40;8.00;;;7.20;19.30;;;;;;4892483;29;20228;-88
2023/02/11 13:30:45;;;;;;;12.68;8.40;;;7.10;19.50;;;;;;4911181;29;20235;-87
2023/02/11 13:39:58;;;;;;;16.98;8.82;;;8.00;18.60;;;;;;4862902;29;20285;-87
2023/02/11 13:53:06;;;;;;;13.75;7.22;;;8.30;17.40;;;;;;4858010;29;20409;-87
2023/02/11 14:12:34;;;;;;;13.02;7.72;;;8.10;18.20;;;;;;5401545;23;20243;-89
2023/02/11 14:15:41;;;;;;;10.38;6.80;;;8.00;18.30;;;;;;4959879;28;20213;-89
2023/02/11 14:18:53;;;;;;;11.10;7.25;;;8.10;18.00;;;;;;4959043;29;20649;-89
2023/02/11 14:24:37;;;;;;;13.48;8.75;;;8.20;18.20;;;;;;5152755;23;20249;-91
2023/02/11 14:27:08;;;;;;;15.25;7.85;;;8.30;20.40;;;;;;4956818;29;20209;-90
2023/02/11 14:29:51;;;;;;;11.98;7.13;;;8.40;18.30;;;;;;4959492;29;20296;-90
2023/02/11 14:36:05;;;;;;;18.20;10.95;;;8.20;18.90;;;;;;4963763;29;20659;-89
2023/02/11 14:38:44;;;;;;;16.27;10.38;;;8.10;19.70;;;;;;4958826;28;20200;-90
2023/02/11 14:41:18;;;;;;;16.23;10.75;;;8.10;18.70;;;;;;4959092;29;20189;-89
2023/02/11 14:43:48;;;;;;;14.20;7.68;;;8.10;19.00;;;;;;4944677;28;20200;-89
2023/02/11 14:52:36;;;;;;;11.00;7.30;;;8.10;18.70;;;;;;4957824;23;20228;-87
2023/02/11 14:55:16;;;;;;;13.43;7.65;;;8.00;18.30;;;;;;4958047;29;20264;-89
2023/02/11 14:58:17;;;;;;;12.52;7.65;;;8.00;18.60;;;;;;5511437;23;20697;-90
2023/02/11 15:00:49;;;;;;;15.57;8.80;;;8.00;19.50;;;;;;4971267;28;20208;-88
2023/02/11 15:03:31;;;;;;;14.77;8.68;;;8.00;19.40;;;;;;4971079;28;20619;-92
2023/02/11 15:06:00;;;;;;;12.57;8.27;;;8.10;19.30;;;;;;4963786;28;20208;-90
2023/02/11 15:08:30;;;;;;;16.73;10.10;;;8.10;19.10;;;;;;4970573;28;20525;-85
2023/02/11 15:10:58;;;;;;;14.35;8.75;;;8.10;20.60;;;;;;4970311;28;20204;-92
2023/02/11 15:13:29;;;;;;;11.95;8.93;;;8.00;20.50;;;;;;4967926;28;20213;-90
2023/02/11 15:16:01;;;;;;;17.63;10.27;;;8.00;20.20;;;;;;4962187;28;20271;-89
2023/02/11 15:18:35;;;;;;;16.73;10.40;;;7.90;22.20;;;;;;4939171;28;20236;-88
2023/02/11 15:21:03;;;;;;;20.35;11.95;;;7.80;22.00;;;;;;4955226;28;20718;-88
2023/02/11 15:23:32;;;;;;;15.13;9.90;;;7.60;23.30;;;;;;4961030;28;20223;-91
2023/02/11 15:26:03;;;;;;;15.30;11.20;;;7.50;23.20;;;;;;4956488;28;20225;-89
2023/02/11 15:28:32;;;;;;;15.55;11.48;;;7.40;23.20;;;;;;4962011;28;20308;-88